createdAt,value
2023-04-18T04:21:52.335Z,11.20
2023-04-18T04:24:20.508Z,11.22
2023-04-18T04:27:03.920Z,11.08
2023-04-18T04:29:31.965Z,11.24
2023-04-18T04:32:00.546Z,11.43
2023-04-18T04:34:35.924Z,11.56
2023-04-18T04:37:05.851Z,11.85
2023-04-18T04:39:39.643Z,11.91
2023-04-18T04:42:25.093Z,11.88
2023-04-18T04:44:59.657Z,11.70
2023-04-18T04:47:26.992Z,11.44
2023-04-18T04:49:55.347Z,11.28
2023-04-18T04:52:22.665Z,11.33
2023-04-18T04:54:52.165Z,11.44
2023-04-18T04:57:22.119Z,11.27
2023-04-18T04:59:49.809Z,11.35
2023-04-18T05:02:17.477Z,11.39
2023-04-18T05:04:45.754Z,11.26
2023-04-18T05:07:13.138Z,11.22
2023-04-18T05:09:40.350Z,11.08
2023-04-18T05:12:08.287Z,10.98
2023-04-18T05:14:36.182Z,10.92
2023-04-18T05:17:04.163Z,10.89
2023-04-18T05:19:32.064Z,10.96
2023-04-18T05:21:59.914Z,11.42
2023-04-18T05:24:27.214Z,11.57
2023-04-18T05:27:09.845Z,11.58
2023-04-18T05:29:37.258Z,11.69
2023-04-18T05:32:04.958Z,11.80
2023-04-18T05:34:32.972Z,11.99
2023-04-18T05:37:00.776Z,12.27
2023-04-18T05:39:28.018Z,12.38
2023-04-18T05:41:55.528Z,12.32
2023-04-18T05:44:24.246Z,12.52
2023-04-18T05:46:52.070Z,12.35
2023-04-18T05:49:19.942Z,12.49
2023-04-18T05:51:49.697Z,12.77
2023-04-18T05:54:17.262Z,13.01
2023-04-18T05:56:45.545Z,13.01
2023-04-18T05:59:13.208Z,13.01
2023-04-18T06:01:41.030Z,13.12
2023-04-18T06:04:08.708Z,12.94
2023-04-18T06:06:36.259Z,13.11
2023-04-18T06:09:03.915Z,13.25
2023-04-18T06:11:33.575Z,13.62
2023-04-18T06:14:01.643Z,13.79
2023-04-18T06:16:29.949Z,13.08
2023-04-18T06:19:00.959Z,13.17
2023-04-18T06:21:29.102Z,12.59
2023-04-18T06:23:57.020Z,12.56
2023-04-18T06:26:24.747Z,12.51
2023-04-18T06:28:52.494Z,12.93
2023-04-18T06:31:20.356Z,12.97
2023-04-18T06:33:47.641Z,12.69
2023-04-18T06:36:15.224Z,12.91
2023-04-18T06:38:43.338Z,12.84
2023-04-18T06:41:11.013Z,13.03
2023-04-18T06:43:38.491Z,13.82
2023-04-18T06:46:06.220Z,13.67
2023-04-18T06:48:34.008Z,13.67
2023-04-18T06:51:01.285Z,14.16
2023-04-18T06:53:29.239Z,13.93
2023-04-18T06:55:57.557Z,14.53
2023-04-18T06:58:25.738Z,14.34
2023-04-18T07:00:54.130Z,14.48
2023-04-18T07:03:21.654Z,14.81
2023-04-18T07:05:50.352Z,15.25
2023-04-18T07:08:17.725Z,15.09
2023-04-18T07:10:45.056Z,15.09
2023-04-18T07:13:12.791Z,15.08
2023-04-18T07:15:40.841Z,15.14
2023-04-18T07:18:08.299Z,15.25
2023-04-18T07:20:35.712Z,15.05
2023-04-18T07:23:03.085Z,15.15
2023-04-18T07:25:30.578Z,15.63
2023-04-18T07:27:58.110Z,15.76
2023-04-18T07:30:26.312Z,16.05
2023-04-18T07:32:53.822Z,16.13
2023-04-18T07:35:22.388Z,16.16
2023-04-18T07:37:50.361Z,16.30
2023-04-18T07:40:18.476Z,16.07
2023-04-18T07:42:46.217Z,15.97
2023-04-18T07:45:15.414Z,15.54
2023-04-18T07:47:42.696Z,16.29
2023-04-18T07:50:11.071Z,16.27
2023-04-18T07:52:39.527Z,16.55
2023-04-18T07:55:07.923Z,16.20
2023-04-18T07:57:35.382Z,16.03
2023-04-18T08:00:03.687Z,15.87
2023-04-18T08:02:41.725Z,16.38
2023-04-18T08:05:10.405Z,16.58
2023-04-18T08:07:38.085Z,16.71
2023-04-18T08:10:06.640Z,16.90
2023-04-18T08:12:33.942Z,17.06
2023-04-18T08:15:01.473Z,17.08
2023-04-18T08:17:28.939Z,17.29
2023-04-18T08:19:56.922Z,17.06
2023-04-18T08:22:24.359Z,16.68
2023-04-18T08:27:25.718Z,17.21
2023-04-18T08:29:53.011Z,17.01
2023-04-18T08:32:20.392Z,17.50
2023-04-18T08:34:47.881Z,17.63
2023-04-18T08:37:15.154Z,17.57
2023-04-18T08:39:42.598Z,17.74
2023-04-18T08:42:10.752Z,17.94
2023-04-18T08:44:38.176Z,18.02
2023-04-18T08:47:08.987Z,17.70
2023-04-18T08:49:36.355Z,17.90
2023-04-18T08:52:11.139Z,18.05
2023-04-18T08:54:42.351Z,18.44
2023-04-18T08:57:26.983Z,18.30
2023-04-18T08:59:55.476Z,18.70
2023-04-18T09:02:38.782Z,18.53
2023-04-18T09:05:14.275Z,18.80
2023-04-18T09:07:43.284Z,18.61
2023-04-18T09:10:12.525Z,18.54
2023-04-18T09:12:52.230Z,18.44
2023-04-18T09:15:23.622Z,18.74
2023-04-18T09:17:56.126Z,18.61
2023-04-18T09:20:44.550Z,18.44
2023-04-18T09:23:16.513Z,18.32
2023-04-18T09:25:48.678Z,18.85
2023-04-18T09:28:29.239Z,18.81
2023-04-18T09:30:58.837Z,18.91
2023-04-18T09:33:28.435Z,18.84
2023-04-18T09:35:57.144Z,18.86
2023-04-18T09:38:41.198Z,19.03
2023-04-18T09:41:10.188Z,19.23
2023-04-18T09:43:37.626Z,19.19
2023-04-18T09:46:06.327Z,18.76
2023-04-18T09:48:33.698Z,19.18
2023-04-18T09:51:10.749Z,19.30
2023-04-18T09:53:44.509Z,19.27
2023-04-18T09:56:27.905Z,18.99
2023-04-18T09:59:01.278Z,19.38
2023-04-18T10:01:29.782Z,19.62
2023-04-18T10:03:58.087Z,19.55
2023-04-18T10:06:27.437Z,19.82
2023-04-18T10:08:55.524Z,19.74
2023-04-18T10:11:24.175Z,19.86
2023-04-18T10:13:56.968Z,19.96
2023-04-18T10:16:25.990Z,19.83
2023-04-18T10:18:53.663Z,19.63
2023-04-18T10:21:21.618Z,19.52
2023-04-18T10:23:49.204Z,19.20
2023-04-18T10:26:16.744Z,19.60
2023-04-18T10:28:53.304Z,19.72
2023-04-18T10:31:29.318Z,19.80
2023-04-18T10:36:29.153Z,20.36
2023-04-18T10:39:03.221Z,20.07
2023-04-18T10:41:32.782Z,20.58
2023-04-18T10:44:08.071Z,20.71
2023-04-18T10:46:40.742Z,20.97
2023-04-18T10:49:24.012Z,21.30
2023-04-18T10:51:55.677Z,21.29
2023-04-18T10:54:23.000Z,21.29
2023-04-18T10:56:54.852Z,21.32
2023-04-18T10:59:24.045Z,20.63
2023-04-18T11:02:04.372Z,20.30
2023-04-18T11:04:31.918Z,20.59
2023-04-18T11:06:59.749Z,21.16
2023-04-18T11:09:26.991Z,21.62
2023-04-18T11:12:10.492Z,21.72
2023-04-18T11:14:45.679Z,21.74
2023-04-18T11:17:41.385Z,21.54
2023-04-18T11:20:12.737Z,22.03
2023-04-18T11:23:00.795Z,21.83
2023-04-18T11:25:28.146Z,21.78
2023-04-18T11:27:59.456Z,21.76
2023-04-18T11:30:28.035Z,22.29
2023-04-18T11:32:56.002Z,22.27
2023-04-18T11:35:23.585Z,22.35
2023-04-18T11:37:51.216Z,21.96
2023-04-18T11:40:18.942Z,22.34
2023-04-18T11:42:46.566Z,22.47
2023-04-18T11:45:14.869Z,23.02
2023-04-18T11:47:43.735Z,22.84
2023-04-18T11:50:13.521Z,22.63
2023-04-18T11:52:42.757Z,22.78
2023-04-18T11:55:24.981Z,23.02
2023-04-18T11:57:56.544Z,22.43
2023-04-18T12:00:49.959Z,22.62
2023-04-18T12:03:18.820Z,22.62
2023-04-18T12:05:46.994Z,22.93
2023-04-18T12:08:20.350Z,22.45
2023-04-18T12:10:53.124Z,22.94
2023-04-18T12:13:32.280Z,23.56
2023-04-18T12:16:02.397Z,23.58
2023-04-18T12:18:29.996Z,23.79
2023-04-18T12:21:01.862Z,23.86
2023-04-18T12:23:30.517Z,23.93
2023-04-18T12:26:05.679Z,24.18
2023-04-18T12:28:36.337Z,24.05
2023-04-18T12:31:07.567Z,24.29
2023-04-18T12:33:36.705Z,24.62
2023-04-18T12:36:05.559Z,24.29
2023-04-18T12:38:32.968Z,23.86
2023-04-18T12:41:00.508Z,24.50
2023-04-18T12:43:28.662Z,24.71
2023-04-18T12:45:56.432Z,24.54
2023-04-18T12:48:23.777Z,24.52
2023-04-18T12:50:51.161Z,24.23
2023-04-18T12:53:18.681Z,24.29
2023-04-18T12:55:46.955Z,24.22
2023-04-18T12:58:18.645Z,24.32
2023-04-18T13:00:46.624Z,24.98
2023-04-18T13:03:14.669Z,25.65
2023-04-18T13:05:42.358Z,25.26
2023-04-18T13:08:17.228Z,25.25
2023-04-18T13:10:47.691Z,24.77
2023-04-18T13:13:15.687Z,24.58
2023-04-18T13:15:43.504Z,24.48
2023-04-18T13:18:10.938Z,23.95
2023-04-18T13:20:38.635Z,24.98
2023-04-18T13:23:07.128Z,25.63
2023-04-18T13:25:34.761Z,25.34
2023-04-18T13:28:02.612Z,25.65
2023-04-18T13:30:31.767Z,25.26
2023-04-18T13:32:59.499Z,25.24
2023-04-18T13:35:27.610Z,24.15
2023-04-18T13:37:55.025Z,24.91
2023-04-18T13:40:24.196Z,25.38
2023-04-18T13:42:51.660Z,24.94
2023-04-18T13:45:19.297Z,26.03
2023-04-18T13:47:47.485Z,25.09
2023-04-18T13:50:16.121Z,25.11
2023-04-18T13:52:43.441Z,24.86
2023-04-18T13:55:12.512Z,25.24
2023-04-18T13:57:41.256Z,26.33
2023-04-18T14:00:09.647Z,26.08
2023-04-18T14:02:41.114Z,27.24
2023-04-18T14:05:09.338Z,27.32
2023-04-18T14:07:38.487Z,26.32
2023-04-18T14:10:06.716Z,26.88
2023-04-18T14:12:34.716Z,26.78
2023-04-18T14:15:02.389Z,26.03
2023-04-18T14:17:31.032Z,26.40
2023-04-18T14:19:58.515Z,26.47
2023-04-18T14:22:26.884Z,26.45
2023-04-18T14:24:56.094Z,25.57
2023-04-18T14:27:25.488Z,25.43
2023-04-18T14:29:53.393Z,25.01
2023-04-18T14:32:20.696Z,24.26
2023-04-18T14:34:48.345Z,23.94
2023-04-18T14:37:17.564Z,23.77
2023-04-18T14:39:44.997Z,24.10
2023-04-18T14:42:12.255Z,24.00
2023-04-18T14:44:40.182Z,24.81
2023-04-18T14:47:07.930Z,25.34
2023-04-18T14:49:35.445Z,25.85
2023-04-18T14:52:03.987Z,25.84
2023-04-18T14:54:32.815Z,25.98
2023-04-18T14:57:01.408Z,26.56
2023-04-18T14:59:28.865Z,26.44
2023-04-18T15:01:56.278Z,25.93
2023-04-18T15:04:23.889Z,25.42
2023-04-18T15:06:51.720Z,24.91
2023-04-18T15:09:19.092Z,25.36
2023-04-18T15:11:46.822Z,25.14
2023-04-18T15:14:14.318Z,24.73
2023-04-18T15:16:42.328Z,24.46
2023-04-18T15:19:09.722Z,24.23
2023-04-18T15:21:37.046Z,24.48
2023-04-18T15:24:04.859Z,24.24
2023-04-18T15:26:33.271Z,24.32
2023-04-18T15:29:04.590Z,24.34
2023-04-18T15:31:32.382Z,23.86
2023-04-18T15:34:00.207Z,23.62
2023-04-18T15:36:28.768Z,23.54
2023-04-18T15:38:56.109Z,23.85
2023-04-18T15:41:24.344Z,23.45
2023-04-18T15:43:52.760Z,23.57
2023-04-18T15:46:20.258Z,23.76
2023-04-18T15:48:47.656Z,23.84
2023-04-18T15:51:15.113Z,23.84
2023-04-18T15:53:42.494Z,23.96
2023-04-18T15:56:09.997Z,24.19
2023-04-18T15:58:37.531Z,23.57
2023-04-18T16:01:05.595Z,23.77
2023-04-18T16:03:33.319Z,23.62
2023-04-18T16:06:00.913Z,23.26
2023-04-18T16:08:29.042Z,23.14
2023-04-18T16:10:57.188Z,22.83
2023-04-18T16:13:24.481Z,22.82
2023-04-18T16:15:52.314Z,22.96
2023-04-18T16:18:19.541Z,23.06
2023-04-18T16:20:47.341Z,22.82
2023-04-18T16:23:15.220Z,22.18
2023-04-18T16:25:42.544Z,22.29
2023-04-18T16:28:09.790Z,22.58
2023-04-18T16:30:37.600Z,22.04
2023-04-18T16:33:05.853Z,22.36
2023-04-18T16:35:33.280Z,21.93
2023-04-18T16:38:02.262Z,22.07
2023-04-18T16:40:31.402Z,21.91
2023-04-18T16:42:59.238Z,22.02
2023-04-18T16:45:26.623Z,21.96
2023-04-18T16:47:54.617Z,21.78
2023-04-18T16:50:22.702Z,21.86
2023-04-18T16:52:50.592Z,21.76
2023-04-18T16:55:18.830Z,21.73
2023-04-18T16:57:46.132Z,21.41
2023-04-18T17:00:14.731Z,21.33
2023-04-18T17:02:43.815Z,21.19
2023-04-18T17:05:12.098Z,21.16
2023-04-18T17:07:39.514Z,21.00
2023-04-18T17:10:09.847Z,20.85
2023-04-18T17:12:38.217Z,20.87
2023-04-18T17:15:06.079Z,20.81
2023-04-18T17:17:34.797Z,20.71
2023-04-18T17:20:02.093Z,20.56
2023-04-18T17:22:29.570Z,20.44
2023-04-18T17:24:57.257Z,20.48
2023-04-18T17:27:25.157Z,20.34
2023-04-18T17:29:53.490Z,20.24
2023-04-18T17:32:21.265Z,19.96
2023-04-18T17:34:49.131Z,19.75
2023-04-18T17:37:17.226Z,19.62
2023-04-18T17:39:44.585Z,19.46
2023-04-18T17:42:12.294Z,19.35
2023-04-18T17:44:39.830Z,19.34
2023-04-18T17:47:07.458Z,19.27
2023-04-18T17:49:35.961Z,19.04
2023-04-18T17:52:04.292Z,18.86
2023-04-18T17:54:32.602Z,18.81
2023-04-18T17:57:00.026Z,18.73
2023-04-18T17:59:28.163Z,18.67
2023-04-18T18:01:56.033Z,18.44
2023-04-18T18:04:26.374Z,18.08
2023-04-18T18:06:57.916Z,17.73
2023-04-18T18:09:25.807Z,17.45
2023-04-18T18:11:55.911Z,17.33
2023-04-18T18:14:23.505Z,17.37
2023-04-18T18:16:51.381Z,17.35
2023-04-18T18:19:18.822Z,17.18
2023-04-18T18:21:47.163Z,16.92
2023-04-18T18:24:14.512Z,16.95
2023-04-18T18:26:41.856Z,17.00
2023-04-18T18:29:09.395Z,16.93
2023-04-18T18:31:37.121Z,16.83
2023-04-18T18:34:05.804Z,16.84
2023-04-18T18:36:33.556Z,16.74
2023-04-18T18:39:01.414Z,16.78
2023-04-18T18:41:29.245Z,16.82
2023-04-18T18:43:56.741Z,16.97
2023-04-18T18:46:24.047Z,16.89
2023-04-18T18:48:52.043Z,17.09
2023-04-18T18:51:19.390Z,17.14
2023-04-18T18:53:46.718Z,17.22
2023-04-18T18:56:14.587Z,17.23
2023-04-18T18:58:43.749Z,17.07
2023-04-18T19:01:11.508Z,16.96
2023-04-18T19:03:40.114Z,16.97
2023-04-18T19:06:08.430Z,17.12
2023-04-18T19:08:36.174Z,16.98
2023-04-18T19:11:04.281Z,16.77
2023-04-18T19:13:32.767Z,16.92
2023-04-18T19:16:00.514Z,16.89
2023-04-18T19:18:28.837Z,16.85
2023-04-18T19:20:56.552Z,16.84
2023-04-18T19:23:25.266Z,16.89
2023-04-18T19:25:53.357Z,16.96
2023-04-18T19:28:22.561Z,16.85
2023-04-18T19:30:50.428Z,16.99
2023-04-18T19:33:17.810Z,16.79
2023-04-18T19:35:45.148Z,16.72
2023-04-18T19:38:12.657Z,16.59
2023-04-18T19:40:40.444Z,16.44
2023-04-18T19:43:08.156Z,16.19
2023-04-18T19:45:36.184Z,16.17
2023-04-18T19:48:03.970Z,16.48
2023-04-18T19:50:31.413Z,16.52
2023-04-18T19:52:58.800Z,16.59
2023-04-18T19:55:26.586Z,16.46
2023-04-18T19:57:58.895Z,16.48
2023-04-18T20:00:26.929Z,16.66
2023-04-18T20:02:54.753Z,16.74
2023-04-18T20:05:22.710Z,16.83
2023-04-18T20:07:50.451Z,16.67
2023-04-18T20:10:22.270Z,16.44
2023-04-18T20:12:50.207Z,16.52
2023-04-18T20:15:17.661Z,16.58
2023-04-18T20:17:45.430Z,16.50
2023-04-18T20:20:13.314Z,16.52
2023-04-18T20:22:41.839Z,16.39
2023-04-18T20:25:09.681Z,16.33
2023-04-18T20:27:37.451Z,16.38
2023-04-18T20:30:05.651Z,16.38
2023-04-18T20:32:34.609Z,16.36
2023-04-18T20:35:02.821Z,16.40
2023-04-18T20:37:32.439Z,16.43
2023-04-18T20:40:02.899Z,16.50
2023-04-18T20:42:30.314Z,16.57
2023-04-18T20:44:58.813Z,16.47
2023-04-18T20:47:27.666Z,16.47
2023-04-18T20:49:56.479Z,16.41
2023-04-18T20:52:23.842Z,16.41
2023-04-18T20:54:51.125Z,16.52
2023-04-18T20:57:21.543Z,16.28
2023-04-18T20:59:49.455Z,16.30
2023-04-18T21:02:17.810Z,16.10
2023-04-18T21:04:46.684Z,16.18
2023-04-18T21:07:14.756Z,16.12
2023-04-18T21:09:42.089Z,16.07
2023-04-18T21:12:09.377Z,16.17
2023-04-18T21:14:36.703Z,16.01
2023-04-18T21:17:04.374Z,16.01
2023-04-18T21:19:31.647Z,15.71
2023-04-18T21:21:59.392Z,15.50
2023-04-18T21:24:26.684Z,15.28
2023-04-18T21:26:54.405Z,15.13
2023-04-18T21:29:22.411Z,15.14
2023-04-18T21:31:50.227Z,15.11
2023-04-18T21:34:18.503Z,14.99
2023-04-18T21:36:46.099Z,14.92
2023-04-18T21:39:13.417Z,14.91
2023-04-18T21:41:41.173Z,14.82
2023-04-18T21:44:08.977Z,14.57
2023-04-18T21:46:37.418Z,14.69
2023-04-18T21:49:04.784Z,14.62
2023-04-18T21:51:32.290Z,14.67
2023-04-18T21:53:59.853Z,14.51
2023-04-18T21:56:27.732Z,14.38
2023-04-18T21:58:55.433Z,14.32
2023-04-18T22:01:23.488Z,14.19
2023-04-18T22:03:51.303Z,14.09
2023-04-18T22:06:20.683Z,14.00
2023-04-18T22:08:48.144Z,14.02
